Etusivu
METAR-TAF:

METAR-TAF

Lentoasemat :

Funchal, Madeira, Portugali

Madeiran lentoasema

Leveyspiiri: 32-41-52N, Pituuspiiri: 016-46-28W, korkeus merenpinnasta: 59 m

Tämänhetkinen sää

Tämä raportti tehtiin 20 minuuttia sitten, kello 11.00 UTC
Tuuli 7 kn lounaasta
Lämpötila 20°C
Kosteus 78%
Ilmanpaine 1015 hPa
Näkyvyys 10 km tai enemmän
Hajanaisia pilviä 1500 ft:n korkeudessa

METAR: LPMA 231100Z 22007KT 9999 SCT015 20/16 Q1015

Aika: 11:20 (11:20 UTC)

Sääennuste

Tämä raportti tehtiin 6 tuntia ja 20 minuuttia sitten, kello 05.00 UTC
Ennuste voimassa 23. päivästä klo 06 UTC - 24. päivään klo 06 UTC
Tuuli 5 kn eri suunnista
Näkyvyys 10 km tai enemmän
Hajanaisia pilviä 1500 ft:n korkeudessa
Hajanaisia pilviä 3000 ft:n korkeudessa
Tulossa
23. päivästä klo 08 UTC - 23. päivään klo 10 UTC
Tuuli 12 kn lounaasta

TAF: LPMA 230500Z 2306/2406 VRB05KT 9999 SCT015 SCT030 BECMG 2308/2310 22012KT

Säähavainnot ja -ennusteet yli 4000 lentoasemalta (METAR- ja TAF-raportit).

Käytössä olevat sääasemat on merkitty karttaan keltaisilla ja punaisilla pisteillä.

Aseta hiiri pisteen päälle nähdäksesi sääaseman nimen.

Klikkaa sitten nähdäksesi säähavainnot ja -ennusteet.

Kartan vaihtaminen: klikkaa mustalla rastilla varustettuja vihreitä pisteitä, niin voit zoomata sisään; viivalla varustettua vihreää pistettä, niin voit zoomata ulos tai vihreitä nuolia, niin pääset viereisille kartoille.


METAR-TAF: